sensor_id;sensor_type;location;lat;lon;timestamp;P1;durP1;ratioP1;P2;durP2;ratioP2
24443;SDS011;13346;50.984;5.822;2023-03-21T00:00:39;12.13;;;5.47;;
24443;SDS011;13346;50.984;5.822;2023-03-21T00:03:06;6.67;;;5.43;;
24443;SDS011;13346;50.984;5.822;2023-03-21T00:05:34;12.10;;;4.37;;
24443;SDS011;13346;50.984;5.822;2023-03-21T00:08:05;11.63;;;5.00;;
24443;SDS011;13346;50.984;5.822;2023-03-21T00:10:32;9.13;;;5.17;;
24443;SDS011;13346;50.984;5.822;2023-03-21T00:12:59;9.13;;;5.20;;
24443;SDS011;13346;50.984;5.822;2023-03-21T00:15:27;5.23;;;4.60;;
24443;SDS011;13346;50.984;5.822;2023-03-21T00:17:56;8.73;;;6.00;;
24443;SDS011;13346;50.984;5.822;2023-03-21T00:20:27;10.60;;;5.60;;
24443;SDS011;13346;50.984;5.822;2023-03-21T00:22:55;7.37;;;5.20;;
24443;SDS011;13346;50.984;5.822;2023-03-21T00:25:22;9.63;;;4.40;;
24443;SDS011;13346;50.984;5.822;2023-03-21T00:27:49;7.77;;;5.13;;
24443;SDS011;13346;50.984;5.822;2023-03-21T00:30:16;9.53;;;5.40;;
24443;SDS011;13346;50.984;5.822;2023-03-21T00:32:45;7.43;;;5.30;;
24443;SDS011;13346;50.984;5.822;2023-03-21T00:35:13;5.77;;;4.93;;
24443;SDS011;13346;50.984;5.822;2023-03-21T00:37:41;6.43;;;5.23;;
24443;SDS011;13346;50.984;5.822;2023-03-21T00:40:08;9.30;;;4.93;;
24443;SDS011;13346;50.984;5.822;2023-03-21T00:42:37;6.80;;;5.13;;
24443;SDS011;13346;50.984;5.822;2023-03-21T00:45:04;13.20;;;5.10;;
24443;SDS011;13346;50.984;5.822;2023-03-21T00:47:34;8.53;;;4.27;;
24443;SDS011;13346;50.984;5.822;2023-03-21T00:50:02;7.33;;;5.23;;
24443;SDS011;13346;50.984;5.822;2023-03-21T00:52:33;5.87;;;4.23;;
24443;SDS011;13346;50.984;5.822;2023-03-21T00:55:00;6.90;;;5.13;;
24443;SDS011;13346;50.984;5.822;2023-03-21T00:57:27;6.10;;;4.73;;
24443;SDS011;13346;50.984;5.822;2023-03-21T00:59:55;10.13;;;5.17;;
24443;SDS011;13346;50.984;5.822;2023-03-21T01:02:22;11.67;;;5.83;;
24443;SDS011;13346;50.984;5.822;2023-03-21T01:04:51;9.13;;;5.90;;
24443;SDS011;13346;50.984;5.822;2023-03-21T01:07:18;5.30;;;4.43;;
24443;SDS011;13346;50.984;5.822;2023-03-21T01:09:47;8.77;;;5.33;;
24443;SDS011;13346;50.984;5.822;2023-03-21T01:12:15;8.63;;;5.30;;
24443;SDS011;13346;50.984;5.822;2023-03-21T01:14:42;6.90;;;4.80;;
24443;SDS011;13346;50.984;5.822;2023-03-21T01:17:09;11.03;;;5.03;;
24443;SDS011;13346;50.984;5.822;2023-03-21T01:19:36;8.37;;;6.30;;
24443;SDS011;13346;50.984;5.822;2023-03-21T01:22:04;9.10;;;6.17;;
24443;SDS011;13346;50.984;5.822;2023-03-21T01:24:31;6.63;;;4.77;;
24443;SDS011;13346;50.984;5.822;2023-03-21T01:27:00;13.50;;;5.93;;
24443;SDS011;13346;50.984;5.822;2023-03-21T01:29:27;5.30;;;4.87;;
24443;SDS011;13346;50.984;5.822;2023-03-21T01:31:55;8.83;;;5.40;;
24443;SDS011;13346;50.984;5.822;2023-03-21T01:34:22;8.80;;;4.90;;
24443;SDS011;13346;50.984;5.822;2023-03-21T01:36:50;5.53;;;4.60;;
24443;SDS011;13346;50.984;5.822;2023-03-21T01:39:17;11.90;;;5.50;;
24443;SDS011;13346;50.984;5.822;2023-03-21T01:41:44;5.50;;;4.70;;
24443;SDS011;13346;50.984;5.822;2023-03-21T01:44:16;9.07;;;4.80;;
24443;SDS011;13346;50.984;5.822;2023-03-21T01:46:45;8.07;;;5.70;;
24443;SDS011;13346;50.984;5.822;2023-03-21T01:49:15;8.70;;;5.33;;
24443;SDS011;13346;50.984;5.822;2023-03-21T01:51:51;8.03;;;4.43;;
24443;SDS011;13346;50.984;5.822;2023-03-21T01:54:22;6.90;;;4.70;;
24443;SDS011;13346;50.984;5.822;2023-03-21T01:56:53;7.27;;;4.90;;
24443;SDS011;13346;50.984;5.822;2023-03-21T01:59:26;7.30;;;4.60;;
24443;SDS011;13346;50.984;5.822;2023-03-21T02:01:57;6.67;;;4.37;;
24443;SDS011;13346;50.984;5.822;2023-03-21T02:04:31;7.47;;;4.50;;
24443;SDS011;13346;50.984;5.822;2023-03-21T02:06:59;13.23;;;5.80;;
24443;SDS011;13346;50.984;5.822;2023-03-21T02:09:32;5.00;;;4.47;;
24443;SDS011;13346;50.984;5.822;2023-03-21T02:12:01;6.67;;;4.10;;
24443;SDS011;13346;50.984;5.822;2023-03-21T02:14:31;6.67;;;4.70;;
24443;SDS011;13346;50.984;5.822;2023-03-21T02:17:01;7.10;;;4.63;;
24443;SDS011;13346;50.984;5.822;2023-03-21T02:22:52;9.27;;;4.33;;
24443;SDS011;13346;50.984;5.822;2023-03-21T02:28:50;5.93;;;4.00;;
24443;SDS011;13346;50.984;5.822;2023-03-21T02:31:29;8.43;;;4.83;;
24443;SDS011;13346;50.984;5.822;2023-03-21T02:37:18;5.23;;;3.90;;
24443;SDS011;13346;50.984;5.822;2023-03-21T02:39:54;6.23;;;3.80;;
24443;SDS011;13346;50.984;5.822;2023-03-21T02:42:33;10.90;;;4.50;;
24443;SDS011;13346;50.984;5.822;2023-03-21T02:45:10;11.97;;;5.60;;
24443;SDS011;13346;50.984;5.822;2023-03-21T02:47:42;7.03;;;4.50;;
24443;SDS011;13346;50.984;5.822;2023-03-21T02:50:16;11.47;;;4.93;;
24443;SDS011;13346;50.984;5.822;2023-03-21T02:52:50;10.57;;;4.67;;
24443;SDS011;13346;50.984;5.822;2023-03-21T02:55:21;8.63;;;4.57;;
24443;SDS011;13346;50.984;5.822;2023-03-21T02:57:50;8.47;;;4.70;;
24443;SDS011;13346;50.984;5.822;2023-03-21T03:00:21;7.03;;;4.13;;
24443;SDS011;13346;50.984;5.822;2023-03-21T03:02:51;12.80;;;4.60;;
24443;SDS011;13346;50.984;5.822;2023-03-21T03:05:20;4.90;;;4.03;;
24443;SDS011;13346;50.984;5.822;2023-03-21T03:07:56;5.30;;;3.30;;
24443;SDS011;13346;50.984;5.822;2023-03-21T03:13:31;4.23;;;3.83;;
24443;SDS011;13346;50.984;5.822;2023-03-21T03:16:10;9.17;;;4.23;;
24443;SDS011;13346;50.984;5.822;2023-03-21T03:18:47;4.87;;;3.50;;
24443;SDS011;13346;50.984;5.822;2023-03-21T03:21:19;9.20;;;5.17;;
24443;SDS011;13346;50.984;5.822;2023-03-21T03:23:51;10.60;;;5.23;;
24443;SDS011;13346;50.984;5.822;2023-03-21T03:26:22;6.97;;;4.53;;
24443;SDS011;13346;50.984;5.822;2023-03-21T03:28:55;9.57;;;4.43;;
24443;SDS011;13346;50.984;5.822;2023-03-21T03:31:27;5.80;;;3.10;;
24443;SDS011;13346;50.984;5.822;2023-03-21T03:33:58;12.23;;;4.90;;
24443;SDS011;13346;50.984;5.822;2023-03-21T03:36:32;8.70;;;4.23;;
24443;SDS011;13346;50.984;5.822;2023-03-21T03:39:05;7.07;;;4.40;;
24443;SDS011;13346;50.984;5.822;2023-03-21T03:41:36;6.60;;;4.00;;
24443;SDS011;13346;50.984;5.822;2023-03-21T03:44:09;5.87;;;3.97;;
24443;SDS011;13346;50.984;5.822;2023-03-21T03:46:38;3.63;;;3.10;;
24443;SDS011;13346;50.984;5.822;2023-03-21T03:49:14;9.00;;;4.43;;
24443;SDS011;13346;50.984;5.822;2023-03-21T03:51:47;8.07;;;4.77;;
24443;SDS011;13346;50.984;5.822;2023-03-21T22:54:18;9.13;;;7.07;;
24443;SDS011;13346;50.984;5.822;2023-03-21T22:56:45;8.23;;;7.40;;
24443;SDS011;13346;50.984;5.822;2023-03-21T22:59:12;7.33;;;6.30;;
24443;SDS011;13346;50.984;5.822;2023-03-21T23:01:39;10.43;;;7.60;;
24443;SDS011;13346;50.984;5.822;2023-03-21T23:04:07;6.83;;;5.83;;
24443;SDS011;13346;50.984;5.822;2023-03-21T23:06:35;7.13;;;6.50;;
24443;SDS011;13346;50.984;5.822;2023-03-21T23:09:02;6.23;;;5.73;;
24443;SDS011;13346;50.984;5.822;2023-03-21T23:11:31;7.20;;;5.97;;
24443;SDS011;13346;50.984;5.822;2023-03-21T23:13:58;7.17;;;6.47;;
24443;SDS011;13346;50.984;5.822;2023-03-21T23:16:25;9.70;;;6.83;;
24443;SDS011;13346;50.984;5.822;2023-03-21T23:18:53;9.47;;;6.63;;
24443;SDS011;13346;50.984;5.822;2023-03-21T23:21:20;8.20;;;7.37;;
24443;SDS011;13346;50.984;5.822;2023-03-21T23:23:49;6.67;;;6.17;;
24443;SDS011;13346;50.984;5.822;2023-03-21T23:26:18;7.03;;;6.50;;
24443;SDS011;13346;50.984;5.822;2023-03-21T23:28:48;7.00;;;6.33;;
24443;SDS011;13346;50.984;5.822;2023-03-21T23:31:16;10.10;;;6.33;;
24443;SDS011;13346;50.984;5.822;2023-03-21T23:33:46;7.83;;;7.23;;
24443;SDS011;13346;50.984;5.822;2023-03-21T23:36:14;7.17;;;6.57;;
24443;SDS011;13346;50.984;5.822;2023-03-21T23:38:43;6.37;;;5.83;;
24443;SDS011;13346;50.984;5.822;2023-03-21T23:41:11;5.57;;;4.97;;
24443;SDS011;13346;50.984;5.822;2023-03-21T23:43:40;6.43;;;5.83;;
24443;SDS011;13346;50.984;5.822;2023-03-21T23:46:09;7.80;;;7.20;;
24443;SDS011;13346;50.984;5.822;2023-03-21T23:48:37;7.47;;;6.33;;
24443;SDS011;13346;50.984;5.822;2023-03-21T23:51:05;6.33;;;5.73;;
24443;SDS011;13346;50.984;5.822;2023-03-21T23:53:32;7.03;;;6.33;;
24443;SDS011;13346;50.984;5.822;2023-03-21T23:56:01;8.13;;;5.97;;
24443;SDS011;13346;50.984;5.822;2023-03-21T23:58:35;6.30;;;5.73;;
